Time;durP1;ratioP1;P1;durP2;ratioP2;P2;SDS_P1;SDS_P2;PMS_P1;PMS_P2;Temp;Humidity;BMP_temperature;BMP_pressure;BME280_temperature;BME280_humidity;BME280_pressure;Samples;Min_cycle;Max_cycle;Signal;HPM_P1;HPM_P2
2022/04/29 00:02:14;;;;;;;19.85;10.32;;;5.00;99.90;;;;;;4971955;28;20057;-82
2022/04/29 00:04:41;;;;;;;21.42;9.75;;;5.00;99.90;;;;;;5001527;28;20516;-82
2022/04/29 00:07:07;;;;;;;22.42;10.30;;;5.10;99.90;;;;;;5001873;28;20053;-81
2022/04/29 00:09:34;;;;;;;18.15;9.63;;;4.90;99.90;;;;;;5037305;28;20686;-81
2022/04/29 00:12:02;;;;;;;20.00;9.60;;;4.90;99.90;;;;;;5005972;28;20124;-81
2022/04/29 00:14:29;;;;;;;23.00;10.55;;;4.90;99.90;;;;;;4992550;28;20064;-81
2022/04/29 00:16:55;;;;;;;18.50;9.98;;;4.90;99.90;;;;;;4994041;28;20042;-81
2022/04/29 00:19:20;;;;;;;24.42;10.80;;;4.80;99.90;;;;;;4993134;28;20049;-81
2022/04/29 00:21:46;;;;;;;25.95;10.45;;;4.90;99.90;;;;;;4978334;28;20104;-81
2022/04/29 00:24:12;;;;;;;22.80;10.23;;;4.80;99.90;;;;;;5009127;28;20493;-81
2022/04/29 00:26:39;;;;;;;19.15;10.40;;;4.80;99.90;;;;;;5026043;28;20049;-80
2022/04/29 00:29:06;;;;;;;19.42;10.35;;;4.70;99.90;;;;;;4978117;28;20052;-81
2022/04/29 00:31:32;;;;;;;21.30;10.38;;;4.70;99.90;;;;;;4992690;28;20500;-81
2022/04/29 00:33:58;;;;;;;18.50;10.90;;;4.60;99.90;;;;;;4976980;28;20448;-81
2022/04/29 00:36:24;;;;;;;20.70;11.15;;;4.50;99.90;;;;;;4991475;28;20046;-80
2022/04/29 00:38:50;;;;;;;22.67;10.52;;;4.60;99.90;;;;;;5029864;28;20100;-80
2022/04/29 00:41:22;;;;;;;21.77;11.25;;;4.60;99.90;;;;;;4968941;28;20125;-84
2022/04/29 00:44:08;;;;;;;25.88;10.18;;;4.50;99.90;;;;;;4994343;28;20449;-80
2022/04/29 00:46:37;;;;;;;21.02;9.85;;;4.50;99.90;;;;;;4990831;28;20089;-80
2022/04/29 00:49:04;;;;;;;19.08;10.05;;;4.50;99.90;;;;;;5009609;28;20057;-82
2022/04/29 00:51:30;;;;;;;17.35;10.73;;;4.50;99.90;;;;;;4992705;28;20088;-80
2022/04/29 00:53:57;;;;;;;17.77;9.95;;;4.50;99.90;;;;;;4998791;28;20074;-80
2022/04/29 00:56:26;;;;;;;19.73;9.95;;;4.50;99.90;;;;;;5008808;28;20044;-81
2022/04/29 00:59:01;;;;;;;22.73;10.35;;;4.40;99.90;;;;;;5008796;28;20045;-81
2022/04/29 01:01:29;;;;;;;25.27;11.07;;;4.40;99.90;;;;;;4991426;28;20065;-81
2022/04/29 01:03:57;;;;;;;22.13;10.30;;;4.40;99.90;;;;;;5025825;28;20308;-80
2022/04/29 01:06:25;;;;;;;22.15;10.15;;;4.40;99.90;;;;;;4988021;28;20046;-81
2022/04/29 01:08:52;;;;;;;23.73;10.10;;;4.20;99.90;;;;;;4992121;28;20064;-81
2022/04/29 01:11:22;;;;;;;23.38;10.20;;;4.10;99.90;;;;;;5025255;28;20050;-84
2022/04/29 01:13:49;;;;;;;20.67;10.02;;;4.10;99.90;;;;;;4993100;28;20046;-81
2022/04/29 01:16:16;;;;;;;24.88;12.13;;;4.00;99.90;;;;;;5007115;28;20041;-81
2022/04/29 01:18:43;;;;;;;20.35;10.73;;;3.90;99.90;;;;;;4973550;28;20050;-84
2022/04/29 01:21:09;;;;;;;21.33;10.43;;;3.90;99.90;;;;;;5001011;28;20072;-83
2022/04/29 01:23:35;;;;;;;20.23;10.32;;;4.00;99.90;;;;;;5022457;28;20053;-80
2022/04/29 01:26:02;;;;;;;19.77;10.35;;;4.00;99.90;;;;;;4973341;28;20074;-82
2022/04/29 01:28:30;;;;;;;17.17;10.20;;;4.00;99.90;;;;;;4985677;28;20132;-82
2022/04/29 01:31:00;;;;;;;17.73;9.32;;;4.00;99.90;;;;;;5000854;28;20441;-81
2022/04/29 01:33:28;;;;;;;14.32;9.27;;;4.00;99.90;;;;;;4974715;28;20505;-81
2022/04/29 01:35:55;;;;;;;15.85;8.35;;;4.00;99.90;;;;;;4968866;28;20046;-82
2022/04/29 01:38:21;;;;;;;14.75;9.10;;;3.90;99.90;;;;;;5009062;28;20122;-84
2022/04/29 01:40:47;;;;;;;14.48;8.85;;;3.90;99.90;;;;;;5035272;28;20045;-80
2022/04/29 01:43:13;;;;;;;19.63;10.38;;;3.90;99.90;;;;;;5010350;28;20042;-83
2022/04/29 01:45:39;;;;;;;19.20;9.95;;;3.80;99.90;;;;;;4991344;28;20133;-81
2022/04/29 01:48:04;;;;;;;16.38;9.65;;;3.80;99.90;;;;;;4974386;28;20053;-81
2022/04/29 01:50:30;;;;;;;18.98;9.57;;;3.70;99.90;;;;;;4992356;28;20053;-80
2022/04/29 01:52:56;;;;;;;19.30;9.63;;;3.70;99.90;;;;;;4998777;28;20053;-80
2022/04/29 01:55:22;;;;;;;18.48;9.60;;;3.70;99.90;;;;;;5008382;28;20086;-83
2022/04/29 01:57:52;;;;;;;19.52;10.38;;;3.60;99.90;;;;;;5008911;28;20046;-81
2022/04/29 02:00:18;;;;;;;15.50;9.13;;;3.50;99.90;;;;;;4990507;28;20072;-81
2022/04/29 02:02:45;;;;;;;17.65;9.82;;;3.50;99.90;;;;;;4976833;28;20054;-82
2022/04/29 02:05:11;;;;;;;22.10;10.02;;;3.40;99.90;;;;;;4996743;28;20045;-81
2022/04/29 02:07:36;;;;;;;15.18;9.05;;;3.50;99.90;;;;;;4976183;28;20065;-81
2022/04/29 02:10:03;;;;;;;16.10;9.63;;;3.40;99.90;;;;;;4975529;28;20052;-81
2022/04/29 02:12:29;;;;;;;16.70;9.88;;;3.40;99.90;;;;;;4968228;28;20449;-81
2022/04/29 02:14:55;;;;;;;14.48;9.43;;;3.40;99.90;;;;;;5009001;28;20128;-81
2022/04/29 02:17:20;;;;;;;19.58;9.43;;;3.30;99.90;;;;;;4988294;28;20104;-83
2022/04/29 02:19:46;;;;;;;21.50;9.52;;;3.30;99.90;;;;;;4990666;28;20038;-81
2022/04/29 02:22:12;;;;;;;21.55;10.55;;;3.40;99.90;;;;;;4989024;28;20069;-81
2022/04/29 02:24:37;;;;;;;16.60;9.68;;;3.40;99.90;;;;;;4987477;28;20053;-81
2022/04/29 02:27:04;;;;;;;15.77;9.25;;;3.40;99.90;;;;;;5006728;28;20642;-81
2022/04/29 02:29:30;;;;;;;14.55;7.90;;;3.40;99.90;;;;;;5020992;28;20133;-81
2022/04/29 02:31:57;;;;;;;17.92;8.93;;;3.50;99.90;;;;;;4974552;28;20134;-81
2022/04/29 02:34:23;;;;;;;20.13;9.38;;;3.50;99.90;;;;;;4989996;28;20108;-83
2022/04/29 02:36:49;;;;;;;19.73;10.85;;;3.50;99.90;;;;;;4990888;28;20115;-81
2022/04/29 02:39:15;;;;;;;21.92;11.88;;;3.50;99.90;;;;;;4975161;28;20492;-83
2022/04/29 02:41:41;;;;;;;26.27;11.60;;;3.60;99.90;;;;;;5018709;28;20049;-82
2022/04/29 02:44:06;;;;;;;19.42;10.15;;;3.60;99.90;;;;;;5027810;28;20500;-81
2022/04/29 02:46:33;;;;;;;21.38;11.75;;;3.60;99.90;;;;;;4989444;28;20050;-81
2022/04/29 02:48:59;;;;;;;20.48;10.93;;;3.60;99.90;;;;;;5007262;28;20054;-81
2022/04/29 02:51:25;;;;;;;26.77;11.05;;;3.50;99.90;;;;;;4993922;28;20050;-83
2022/04/29 02:53:51;;;;;;;17.10;11.73;;;3.60;99.90;;;;;;4968324;28;20108;-81
2022/04/29 02:56:17;;;;;;;18.98;10.82;;;3.60;99.90;;;;;;4980682;28;20053;-81
2022/04/29 02:58:44;;;;;;;21.67;11.02;;;3.70;99.90;;;;;;4973731;28;20115;-81
2022/04/29 03:01:09;;;;;;;21.30;10.88;;;3.80;99.90;;;;;;4969281;28;20441;-83
2022/04/29 03:03:35;;;;;;;19.85;11.15;;;3.60;99.90;;;;;;5022237;28;20065;-81
2022/04/29 03:06:01;;;;;;;19.38;10.90;;;3.70;99.90;;;;;;4985460;28;20042;-83
2022/04/29 03:08:28;;;;;;;24.98;11.95;;;3.70;99.90;;;;;;4981195;28;20050;-83
2022/04/29 03:10:53;;;;;;;25.52;11.95;;;3.60;99.90;;;;;;4970583;28;20057;-81
2022/04/29 03:13:19;;;;;;;20.55;10.68;;;3.60;99.90;;;;;;4988659;28;20060;-81
2022/04/29 03:15:45;;;;;;;24.55;11.85;;;3.60;99.90;;;;;;4971946;28;20140;-81
2022/04/29 03:18:22;;;;;;;21.35;10.63;;;3.60;99.90;;;;;;4991704;28;20130;-81
2022/04/29 03:20:57;;;;;;;25.15;10.60;;;3.60;99.90;;;;;;5022970;28;20046;-81
2022/04/29 03:23:24;;;;;;;35.20;11.80;;;3.60;99.90;;;;;;5007249;28;20050;-81
2022/04/29 03:25:49;;;;;;;18.35;10.50;;;3.50;99.90;;;;;;4989379;28;20131;-81
2022/04/29 03:28:16;;;;;;;18.90;10.57;;;3.50;99.90;;;;;;4990462;28;20053;-81
2022/04/29 03:30:42;;;;;;;20.92;10.93;;;3.40;99.90;;;;;;4988785;28;20452;-81
2022/04/29 03:33:09;;;;;;;17.75;9.68;;;3.40;99.90;;;;;;5022461;28;20046;-81
2022/04/29 03:35:39;;;;;;;19.35;9.73;;;3.40;99.90;;;;;;4968276;28;20046;-81
2022/04/29 03:38:06;;;;;;;13.25;9.07;;;3.40;99.90;;;;;;5023208;28;20105;-80
2022/04/29 03:40:33;;;;;;;22.65;10.38;;;3.30;99.90;;;;;;4974066;28;20053;-82
2022/04/29 03:42:58;;;;;;;15.40;8.63;;;3.40;99.90;;;;;;4972309;28;20657;-81
2022/04/29 03:45:26;;;;;;;14.13;8.05;;;3.30;99.90;;;;;;4971897;28;20110;-80
2022/04/29 03:47:54;;;;;;;12.55;7.72;;;3.20;99.90;;;;;;4979413;28;20413;-82
2022/04/29 03:50:23;;;;;;;15.25;9.20;;;3.10;99.90;;;;;;4991583;28;20125;-81
2022/04/29 03:52:58;;;;;;;16.92;9.02;;;3.00;99.90;;;;;;4979590;28;20219;-81
2022/04/29 03:55:27;;;;;;;14.40;9.13;;;3.00;99.90;;;;;;4994309;28;20053;-81
2022/04/29 03:57:54;;;;;;;17.58;9.35;;;3.00;99.90;;;;;;4992806;28;20080;-81
2022/04/29 04:00:21;;;;;;;17.67;9.55;;;3.00;99.90;;;;;;5027167;28;20141;-81
2022/04/29 04:02:47;;;;;;;17.25;9.40;;;3.00;99.90;;;;;;5008334;28;20409;-81
2022/04/29 04:05:17;;;;;;;18.20;9.50;;;3.00;99.90;;;;;;4993066;28;20085;-81
2022/04/29 04:07:43;;;;;;;19.98;9.18;;;3.10;99.90;;;;;;5008573;28;20049;-82
2022/04/29 04:10:10;;;;;;;14.05;8.40;;;3.10;99.90;;;;;;5010792;28;20085;-81
2022/04/29 04:12:49;;;;;;;15.75;8.25;;;3.20;99.90;;;;;;4992188;28;20065;-81
2022/04/29 04:15:16;;;;;;;17.70;8.43;;;3.20;99.90;;;;;;5026665;28;20050;-81
2022/04/29 04:17:42;;;;;;;20.67;9.07;;;3.20;99.90;;;;;;4997874;28;20137;-82
2022/04/29 04:20:10;;;;;;;15.40;8.63;;;3.20;99.90;;;;;;5024626;28;20046;-80
2022/04/29 04:22:36;;;;;;;16.73;9.43;;;3.30;99.90;;;;;;4974809;28;20112;-81
2022/04/29 04:25:20;;;;;;;20.30;10.10;;;3.20;99.90;;;;;;5025810;28;20042;-81
2022/04/29 04:27:46;;;;;;;20.23;10.85;;;3.30;99.90;;;;;;4974278;28;20046;-80
2022/04/29 04:30:12;;;;;;;20.02;11.25;;;3.30;99.90;;;;;;4967223;28;20103;-81
2022/04/29 04:32:39;;;;;;;31.40;13.00;;;3.50;99.90;;;;;;5012672;28;20116;-81
2022/04/29 04:35:06;;;;;;;21.08;11.02;;;3.50;99.90;;;;;;5011160;28;20052;-81
2022/04/29 04:37:33;;;;;;;20.15;10.70;;;3.60;99.90;;;;;;4974199;28;20044;-84
2022/04/29 04:40:00;;;;;;;20.90;10.45;;;3.70;99.90;;;;;;4990702;28;20065;-84
2022/04/29 04:42:26;;;;;;;19.85;9.88;;;3.90;99.90;;;;;;5010544;28;20096;-80
2022/04/29 04:44:52;;;;;;;16.73;9.88;;;4.00;99.90;;;;;;5010699;28;20071;-80
2022/04/29 04:47:19;;;;;;;18.60;9.98;;;4.10;99.90;;;;;;5009251;28;20042;-80
2022/04/29 04:49:45;;;;;;;17.52;9.25;;;4.20;99.90;;;;;;5026702;28;20077;-81
2022/04/29 04:52:11;;;;;;;17.55;10.93;;;4.20;99.90;;;;;;4974969;28;20074;-81
2022/04/29 04:54:37;;;;;;;23.00;10.80;;;4.40;99.90;;;;;;5026478;28;20501;-81
2022/04/29 04:57:04;;;;;;;23.30;11.10;;;4.40;99.90;;;;;;4974556;28;20046;-82
2022/04/29 04:59:30;;;;;;;31.38;12.00;;;4.50;99.90;;;;;;4991819;28;20057;-80
2022/04/29 05:01:55;;;;;;;15.68;9.23;;;4.60;99.90;;;;;;4982758;28;20043;-82
2022/04/29 05:04:21;;;;;;;14.98;9.70;;;4.70;99.90;;;;;;5006599;28;20045;-81
2022/04/29 05:06:47;;;;;;;18.13;10.40;;;4.80;99.90;;;;;;5009154;28;20141;-80
2022/04/29 05:09:13;;;;;;;20.63;10.48;;;4.90;99.90;;;;;;4994502;28;20054;-81
2022/04/29 05:11:39;;;;;;;19.15;10.65;;;5.10;99.90;;;;;;4993517;28;20058;-82
2022/04/29 05:14:05;;;;;;;23.80;11.05;;;5.20;99.90;;;;;;4994701;28;20092;-81
2022/04/29 05:16:30;;;;;;;23.45;11.10;;;5.40;99.90;;;;;;4992834;28;20038;-80
2022/04/29 05:18:56;;;;;;;22.25;9.93;;;5.70;99.90;;;;;;4980151;28;20110;-81
2022/04/29 05:21:22;;;;;;;21.50;11.00;;;5.80;99.90;;;;;;5003109;28;20069;-83
2022/04/29 05:23:48;;;;;;;16.45;10.52;;;6.10;99.90;;;;;;4975018;28;20061;-81
2022/04/29 05:26:13;;;;;;;21.48;11.73;;;6.40;99.90;;;;;;4973281;28;20053;-81
2022/04/29 05:28:39;;;;;;;20.67;12.10;;;6.40;99.90;;;;;;4993275;28;20057;-81
2022/04/29 05:31:05;;;;;;;17.55;9.65;;;6.60;99.90;;;;;;4976562;28;20042;-82
2022/04/29 05:33:32;;;;;;;22.58;10.32;;;6.70;99.90;;;;;;4991781;28;20069;-79
2022/04/29 05:35:59;;;;;;;14.52;9.43;;;6.80;99.90;;;;;;5009213;28;20329;-80
2022/04/29 05:42:14;;;;;;;18.27;9.68;;;7.00;99.90;;;;;;5026082;28;20057;-80
2022/04/29 05:43:56;;;;;;;13.60;7.93;;;7.10;99.90;;;;;;4995469;28;20058;-82
2022/04/29 05:46:22;;;;;;;14.55;8.90;;;7.20;99.90;;;;;;4977468;28;20049;-82
2022/04/29 05:48:48;;;;;;;19.20;9.32;;;7.20;99.90;;;;;;4990905;28;20049;-82
2022/04/29 05:51:14;;;;;;;13.18;8.55;;;7.30;99.90;;;;;;5006832;28;20049;-81
2022/04/29 05:53:39;;;;;;;14.13;8.27;;;7.40;99.90;;;;;;4974163;28;20046;-84
2022/04/29 05:56:05;;;;;;;12.70;8.55;;;7.50;99.90;;;;;;4963401;28;20379;-81
2022/04/29 05:58:31;;;;;;;15.52;8.30;;;7.40;99.90;;;;;;4987320;28;20054;-81
2022/04/29 06:00:58;;;;;;;16.52;8.63;;;7.50;99.90;;;;;;5008475;28;20888;-80
2022/04/29 06:03:24;;;;;;;12.43;7.90;;;7.50;99.90;;;;;;4971276;28;20152;-81
2022/04/29 06:05:50;;;;;;;17.30;8.23;;;7.50;99.90;;;;;;5008518;28;20049;-80
2022/04/29 06:08:16;;;;;;;10.30;7.80;;;7.60;99.90;;;;;;5008620;28;20182;-80
2022/04/29 06:10:42;;;;;;;16.85;8.18;;;7.70;99.90;;;;;;4977948;28;20090;-82
2022/04/29 06:13:11;;;;;;;13.40;7.85;;;7.80;99.90;;;;;;5000710;28;20053;-79
2022/04/29 06:15:36;;;;;;;16.33;8.45;;;7.90;99.90;;;;;;4986000;28;20049;-79
2022/04/29 06:18:03;;;;;;;13.55;7.68;;;7.90;99.90;;;;;;4956888;28;20049;-81
2022/04/29 06:20:29;;;;;;;14.32;7.72;;;8.00;99.90;;;;;;5009225;28;20466;-79
2022/04/29 06:22:55;;;;;;;14.57;7.60;;;8.10;99.90;;;;;;5007177;28;20060;-79
2022/04/29 06:25:22;;;;;;;10.98;7.05;;;8.10;99.90;;;;;;4976782;28;20145;-80
2022/04/29 06:27:48;;;;;;;10.30;7.07;;;8.20;99.90;;;;;;4976230;28;20157;-81
2022/04/29 06:30:14;;;;;;;12.80;7.15;;;8.30;99.90;;;;;;4976558;28;20196;-80
2022/04/29 06:32:40;;;;;;;9.88;7.25;;;8.40;99.90;;;;;;5012945;28;20053;-82
2022/04/29 06:35:06;;;;;;;12.20;7.28;;;8.40;99.90;;;;;;5013063;28;20046;-81
2022/04/29 06:37:33;;;;;;;12.93;6.55;;;8.50;99.90;;;;;;5004296;28;20050;-84
2022/04/29 06:39:59;;;;;;;13.43;7.10;;;8.70;99.90;;;;;;5007351;28;20175;-82
2022/04/29 06:42:25;;;;;;;11.32;6.60;;;8.70;99.90;;;;;;4988225;28;20595;-81
2022/04/29 06:44:50;;;;;;;10.57;6.68;;;8.80;99.90;;;;;;4974689;28;20058;-84
2022/04/29 06:47:17;;;;;;;10.90;6.68;;;8.90;99.90;;;;;;4986267;28;20069;-83
2022/04/29 06:49:43;;;;;;;15.18;6.45;;;9.00;99.90;;;;;;4996522;28;20156;-85
2022/04/29 06:52:09;;;;;;;12.75;6.55;;;9.10;99.90;;;;;;4985795;28;20513;-82
2022/04/29 06:54:35;;;;;;;8.30;5.00;;;9.20;99.90;;;;;;4966392;28;20082;-81
2022/04/29 06:57:01;;;;;;;10.68;5.90;;;9.30;99.90;;;;;;5007732;28;20057;-82
2022/04/29 06:59:27;;;;;;;10.27;5.80;;;9.30;99.90;;;;;;4972653;28;20050;-83
2022/04/29 07:01:53;;;;;;;11.45;5.15;;;9.30;99.90;;;;;;5000122;28;20081;-83
2022/04/29 07:04:19;;;;;;;6.10;3.75;;;9.40;99.90;;;;;;5007251;28;20060;-82
2022/04/29 07:06:45;;;;;;;6.82;3.95;;;9.40;99.90;;;;;;4989650;28;20068;-85
2022/04/29 07:09:11;;;;;;;8.77;3.53;;;9.50;99.90;;;;;;5002676;28;20049;-83
2022/04/29 07:11:37;;;;;;;6.97;3.58;;;9.60;99.90;;;;;;4984810;28;20058;-83
2022/04/29 07:14:05;;;;;;;9.45;3.30;;;9.60;99.90;;;;;;4964004;28;20042;-81
2022/04/29 07:16:30;;;;;;;6.75;3.55;;;9.70;99.90;;;;;;5004316;28;20065;-80
2022/04/29 07:18:57;;;;;;;5.97;3.50;;;9.90;99.90;;;;;;4986584;28;20053;-83
2022/04/29 07:21:23;;;;;;;8.50;3.63;;;10.00;99.90;;;;;;4971831;28;20160;-83
2022/04/29 07:23:49;;;;;;;6.50;3.63;;;10.20;99.90;;;;;;4992460;28;20053;-80
2022/04/29 07:26:15;;;;;;;4.57;3.10;;;10.30;99.90;;;;;;4997819;28;20050;-81
2022/04/29 07:28:41;;;;;;;8.00;3.25;;;10.40;99.90;;;;;;4991838;28;20643;-80
2022/04/29 07:31:07;;;;;;;7.07;3.28;;;10.40;99.90;;;;;;5024197;28;20046;-80
2022/04/29 07:33:33;;;;;;;5.95;3.10;;;10.50;99.90;;;;;;4975864;28;20049;-80
2022/04/29 07:41:45;;;;;;;6.57;3.55;;;10.30;99.90;;;;;;5010613;28;20054;-81
2022/04/29 07:44:12;;;;;;;6.88;3.47;;;10.30;99.90;;;;;;4991874;28;20045;-80
2022/04/29 07:46:39;;;;;;;6.55;3.08;;;10.50;99.90;;;;;;5007829;28;20046;-81
2022/04/29 07:49:05;;;;;;;7.88;3.60;;;10.60;99.90;;;;;;5006696;28;20041;-82
2022/04/29 07:51:32;;;;;;;7.43;3.15;;;10.70;99.90;;;;;;4982748;28;20045;-79
2022/04/29 07:53:58;;;;;;;5.78;3.40;;;10.80;99.90;;;;;;5002372;28;20060;-80
2022/04/29 07:56:23;;;;;;;8.18;3.40;;;11.00;99.90;;;;;;4999861;28;20042;-82
2022/04/29 07:58:49;;;;;;;6.03;3.55;;;11.10;99.90;;;;;;4973958;28;20141;-81
2022/04/29 08:01:16;;;;;;;7.10;2.97;;;11.30;99.90;;;;;;4975254;28;20136;-80
2022/04/29 08:03:45;;;;;;;6.57;3.22;;;11.40;99.90;;;;;;5023067;28;20508;-82
2022/04/29 08:06:10;;;;;;;7.88;3.60;;;11.50;99.90;;;;;;4975522;28;20077;-83
2022/04/29 08:08:39;;;;;;;7.10;3.30;;;11.60;99.90;;;;;;5015093;28;20084;-83
2022/04/29 08:11:05;;;;;;;7.30;3.50;;;11.70;99.90;;;;;;4993616;28;20484;-81
2022/04/29 08:13:31;;;;;;;7.05;3.40;;;11.90;99.90;;;;;;5011470;28;20053;-82
2022/04/29 08:15:59;;;;;;;9.90;3.65;;;12.10;99.50;;;;;;5010492;28;20448;-82
2022/04/29 08:18:26;;;;;;;11.55;3.85;;;12.20;96.90;;;;;;4986024;28;20084;-81
2022/04/29 08:20:52;;;;;;;7.10;3.80;;;12.40;96.80;;;;;;4991529;28;20045;-82
2022/04/29 08:23:18;;;;;;;7.30;3.20;;;12.30;96.00;;;;;;5007496;28;20069;-81
2022/04/29 08:25:44;;;;;;;4.22;3.13;;;12.50;95.10;;;;;;5011196;28;20049;-83
2022/04/29 08:28:12;;;;;;;5.57;3.20;;;12.90;94.60;;;;;;5010462;28;20432;-81
2022/04/29 08:30:44;;;;;;;6.53;2.70;;;13.20;92.40;;;;;;4979114;28;20432;-82
2022/04/29 08:33:13;;;;;;;4.50;2.70;;;13.40;91.10;;;;;;5015208;28;20451;-81
2022/04/29 08:35:40;;;;;;;3.88;2.60;;;13.70;89.30;;;;;;4995634;28;20050;-81
2022/04/29 08:38:10;;;;;;;9.02;2.28;;;13.80;86.30;;;;;;5009712;28;20070;-81
2022/04/29 08:40:41;;;;;;;9.38;2.45;;;13.90;84.20;;;;;;4979155;28;20053;-81
2022/04/29 08:43:07;;;;;;;4.80;2.50;;;13.80;81.00;;;;;;5009446;28;20408;-81
2022/04/29 08:45:33;;;;;;;5.95;2.70;;;13.80;80.60;;;;;;4978708;28;20053;-82
2022/04/29 08:47:59;;;;;;;4.63;2.40;;;13.80;80.30;;;;;;5013541;28;20046;-82
2022/04/29 08:50:26;;;;;;;5.75;2.40;;;13.80;81.20;;;;;;4993603;28;20045;-81
2022/04/29 08:52:53;;;;;;;8.25;3.00;;;13.60;79.40;;;;;;5035909;28;20443;-83
2022/04/29 09:00:49;;;;;;;7.15;2.97;;;13.40;80.70;;;;;;4996231;28;20053;-81
2022/04/29 09:03:22;;;;;;;4.05;2.30;;;13.30;80.10;;;;;;5009717;28;20053;-81
2022/04/29 09:05:50;;;;;;;6.55;2.65;;;13.20;78.70;;;;;;4994102;28;20065;-82
2022/04/29 09:08:21;;;;;;;6.53;2.63;;;13.10;80.30;;;;;;5006619;28;20038;-81
2022/04/29 09:10:51;;;;;;;4.97;2.53;;;13.10;80.80;;;;;;4958256;28;20069;-81
2022/04/29 09:13:28;;;;;;;6.28;2.47;;;13.20;81.00;;;;;;4988458;28;20064;-83
2022/04/29 09:15:57;;;;;;;7.93;2.63;;;13.40;80.30;;;;;;4988880;28;20046;-85
2022/04/29 09:18:29;;;;;;;5.18;2.30;;;13.50;79.80;;;;;;5003474;28;20128;-82
2022/04/29 09:20:55;;;;;;;4.93;2.35;;;13.60;76.40;;;;;;5003499;28;20038;-81
2022/04/29 09:23:28;;;;;;;4.75;2.55;;;13.70;76.90;;;;;;4973578;28;20046;-80
2022/04/29 09:25:57;;;;;;;7.60;3.03;;;13.70;74.30;;;;;;5004875;28;20161;-84
2022/04/29 09:28:23;;;;;;;5.95;2.60;;;13.80;75.80;;;;;;5010198;28;20052;-82
2022/04/29 09:30:55;;;;;;;6.82;2.60;;;13.90;73.80;;;;;;5006433;28;20420;-82
2022/04/29 09:33:22;;;;;;;4.70;2.40;;;13.90;73.60;;;;;;4977274;28;20056;-81
2022/04/29 09:35:49;;;;;;;6.10;2.58;;;14.00;73.20;;;;;;4979284;28;20528;-81
2022/04/29 09:41:01;;;;;;;7.97;2.73;;;14.00;73.40;;;;;;5004566;28;20073;-81
2022/04/29 09:43:35;;;;;;;7.28;2.60;;;14.00;74.20;;;;;;5022723;28;20053;-80
2022/04/29 09:46:20;;;;;;;5.82;2.67;;;14.00;75.40;;;;;;4975552;28;20050;-80
2022/04/29 09:49:09;;;;;;;4.78;2.60;;;13.90;71.00;;;;;;5017101;28;20423;-80
2022/04/29 09:51:41;;;;;;;4.25;2.38;;;13.70;73.60;;;;;;4984961;28;20087;-81
2022/04/29 09:54:28;;;;;;;6.78;2.53;;;13.50;76.40;;;;;;4997847;28;20034;-84
2022/04/29 09:57:02;;;;;;;6.63;2.30;;;13.30;78.40;;;;;;4973877;28;20838;-84
2022/04/29 09:59:46;;;;;;;4.05;2.20;;;13.10;76.70;;;;;;4991913;28;20053;-82
2022/04/29 10:02:19;;;;;;;5.75;2.20;;;13.00;78.90;;;;;;4984309;28;20052;-83
2022/04/29 10:04:46;;;;;;;7.80;2.13;;;13.00;81.00;;;;;;4987635;28;20526;-83
2022/04/29 10:07:15;;;;;;;5.25;2.40;;;13.00;80.60;;;;;;4973441;28;20050;-85
2022/04/29 10:09:46;;;;;;;5.95;1.90;;;13.10;80.70;;;;;;4987749;28;20050;-83
2022/04/29 10:12:16;;;;;;;7.20;2.10;;;13.00;79.20;;;;;;5008094;28;20089;-80
2022/04/29 10:14:45;;;;;;;4.85;2.13;;;13.00;80.40;;;;;;5005807;28;20137;-83
2022/04/29 10:22:53;;;;;;;6.25;2.20;;;13.20;77.70;;;;;;5000436;28;20589;-83
2022/04/29 10:25:23;;;;;;;4.85;2.08;;;13.20;77.60;;;;;;5002311;28;20054;-81
2022/04/29 10:27:51;;;;;;;6.93;2.40;;;13.20;77.80;;;;;;4997803;28;20054;-83
2022/04/29 10:30:32;;;;;;;5.18;2.30;;;13.20;77.50;;;;;;4975504;28;20323;-83
2022/04/29 10:33:10;;;;;;;7.15;2.50;;;13.10;76.80;;;;;;4997861;28;20041;-84
2022/04/29 10:35:50;;;;;;;5.32;2.80;;;13.10;78.50;;;;;;4974563;28;20065;-83
2022/04/29 10:38:31;;;;;;;6.30;2.88;;;13.00;79.70;;;;;;4992787;28;20112;-82
2022/04/29 10:41:19;;;;;;;8.13;3.10;;;13.00;79.60;;;;;;4992947;28;20058;-84
2022/04/29 10:43:47;;;;;;;8.77;3.10;;;13.20;78.90;;;;;;5025338;28;20057;-83
2022/04/29 10:46:23;;;;;;;7.75;3.38;;;13.20;79.80;;;;;;5008804;28;20053;-80
2022/04/29 10:48:52;;;;;;;4.63;3.30;;;13.10;77.40;;;;;;4992773;28;20392;-81
2022/04/29 10:51:27;;;;;;;7.57;3.05;;;12.90;78.90;;;;;;4960022;28;20046;-82
2022/04/29 10:53:55;;;;;;;5.97;3.10;;;12.80;78.60;;;;;;4992663;28;20101;-83
2022/04/29 10:56:30;;;;;;;5.68;3.30;;;12.70;79.90;;;;;;5024474;28;20128;-83
2022/04/29 10:59:11;;;;;;;5.85;3.70;;;12.80;78.50;;;;;;5008585;28;20057;-80
2022/04/29 11:01:39;;;;;;;4.30;3.40;;;12.80;79.90;;;;;;5008924;28;20111;-82
2022/04/29 11:04:05;;;;;;;5.57;3.33;;;12.80;80.30;;;;;;5008448;28;20178;-82
2022/04/29 11:06:44;;;;;;;5.40;4.32;;;12.90;81.10;;;;;;5008471;28;20041;-82
2022/04/29 11:09:35;;;;;;;9.13;4.47;;;13.00;79.40;;;;;;4975897;28;20643;-81
2022/04/29 11:12:03;;;;;;;7.72;4.07;;;12.90;77.70;;;;;;4987080;28;20086;-82
2022/04/29 11:14:29;;;;;;;9.02;4.32;;;12.90;80.60;;;;;;5020412;28;20038;-84
2022/04/29 11:17:14;;;;;;;8.02;4.55;;;12.90;80.20;;;;;;5006741;28;20113;-82
2022/04/29 11:19:47;;;;;;;14.32;6.03;;;12.70;75.60;;;;;;4960886;28;20046;-81
2022/04/29 11:25:05;;;;;;;6.68;4.35;;;12.60;79.20;;;;;;4984560;28;20548;-81
2022/04/29 11:27:37;;;;;;;5.32;4.80;;;12.60;80.30;;;;;;4986204;28;20053;-83
2022/04/29 11:30:04;;;;;;;6.63;4.70;;;12.60;79.70;;;;;;4995240;28;20501;-80
2022/04/29 11:32:30;;;;;;;9.38;4.85;;;12.50;80.50;;;;;;4969348;28;20060;-81
2022/04/29 11:34:58;;;;;;;11.25;5.28;;;12.50;81.60;;;;;;5019369;28;20037;-80
2022/04/29 11:37:25;;;;;;;6.63;5.00;;;12.60;81.90;;;;;;5005242;28;20154;-83
2022/04/29 11:39:54;;;;;;;8.00;5.13;;;12.50;81.80;;;;;;4990791;28;20451;-83
2022/04/29 11:42:21;;;;;;;8.75;5.28;;;12.60;81.70;;;;;;4987685;28;20557;-82
2022/04/29 11:44:50;;;;;;;10.38;6.28;;;12.60;80.70;;;;;;4988227;28;20409;-82
2022/04/29 11:47:26;;;;;;;6.70;5.45;;;12.60;79.70;;;;;;4998223;28;20125;-79
2022/04/29 11:49:53;;;;;;;8.30;5.88;;;12.60;78.90;;;;;;4979667;28;20519;-79
2022/04/29 11:52:30;;;;;;;12.45;5.35;;;12.60;80.10;;;;;;4984024;28;20522;-81
2022/04/29 11:55:01;;;;;;;8.85;4.70;;;12.80;76.80;;;;;;4987758;28;20848;-80
2022/04/29 11:57:31;;;;;;;10.23;4.80;;;13.00;77.90;;;;;;4987616;28;20133;-80
2022/04/29 11:59:58;;;;;;;9.52;4.82;;;13.20;76.60;;;;;;4974474;28;20045;-80
2022/04/29 12:02:26;;;;;;;8.90;5.05;;;13.60;75.40;;;;;;5003825;28;20489;-81
2022/04/29 12:04:56;;;;;;;9.40;6.03;;;13.90;71.70;;;;;;4974238;28;20041;-81
2022/04/29 12:07:26;;;;;;;9.23;3.67;;;14.10;70.00;;;;;;5009237;28;20104;-79
2022/04/29 12:09:53;;;;;;;11.55;6.30;;;14.10;69.30;;;;;;4986479;28;20125;-81
2022/04/29 12:12:28;;;;;;;8.93;5.63;;;14.00;69.10;;;;;;4990551;28;20060;-80
2022/04/29 12:14:56;;;;;;;7.57;4.30;;;13.80;68.10;;;;;;4982617;28;20057;-81
2022/04/29 12:17:56;;;;;;;6.20;4.10;;;13.70;70.80;;;;;;5009450;28;20552;-80
2022/04/29 12:20:21;;;;;;;6.32;4.10;;;13.70;69.30;;;;;;4979115;28;20053;-80
2022/04/29 12:22:48;;;;;;;6.15;4.38;;;13.40;70.70;;;;;;5010799;28;20046;-80
2022/04/29 12:25:20;;;;;;;8.52;4.20;;;13.30;71.20;;;;;;5011155;28;20089;-81
2022/04/29 12:27:46;;;;;;;4.30;3.60;;;13.40;71.90;;;;;;5007642;28;20047;-80
2022/04/29 12:36:12;;;;;;;5.32;3.45;;;13.20;70.90;;;;;;5009240;28;20054;-81
2022/04/29 12:38:40;;;;;;;8.05;4.00;;;13.20;69.60;;;;;;5007520;28;20154;-80
2022/04/29 12:41:23;;;;;;;11.05;4.20;;;13.20;70.60;;;;;;4990428;28;20057;-83
2022/04/29 12:43:50;;;;;;;8.30;4.05;;;13.30;69.60;;;;;;4992714;28;20580;-80
2022/04/29 12:46:20;;;;;;;7.13;3.90;;;13.50;70.70;;;;;;4979559;28;20136;-80
2022/04/29 12:48:51;;;;;;;7.10;4.10;;;13.80;69.20;;;;;;4970973;28;20061;-81
2022/04/29 12:51:36;;;;;;;8.45;4.40;;;14.00;66.30;;;;;;5008542;28;20108;-82
2022/04/29 12:54:07;;;;;;;5.13;3.75;;;14.20;64.10;;;;;;5025684;28;20081;-81
2022/04/29 12:56:35;;;;;;;9.75;4.55;;;14.30;65.60;;;;;;4976389;28;20042;-80
2022/04/29 12:59:04;;;;;;;6.75;4.50;;;14.30;64.50;;;;;;5021046;28;20716;-81
2022/04/29 13:01:37;;;;;;;10.07;4.55;;;14.20;63.30;;;;;;4997116;28;20058;-81
2022/04/29 13:04:03;;;;;;;4.75;3.60;;;14.10;63.20;;;;;;4990232;28;20060;-81
2022/04/29 13:06:29;;;;;;;6.75;3.55;;;14.00;64.90;;;;;;4974307;28;20050;-80
2022/04/29 13:08:57;;;;;;;6.18;4.03;;;14.00;65.50;;;;;;5009174;28;20045;-80
2022/04/29 13:11:23;;;;;;;6.50;3.92;;;14.10;66.40;;;;;;5005901;28;20197;-81
2022/04/29 13:13:51;;;;;;;6.57;3.90;;;14.10;66.60;;;;;;4972914;28;20054;-80
2022/04/29 13:16:18;;;;;;;5.43;4.55;;;14.00;64.90;;;;;;4960732;28;20070;-80
2022/04/29 13:18:45;;;;;;;6.88;3.72;;;14.20;64.70;;;;;;4994039;28;20049;-81
2022/04/29 13:21:11;;;;;;;6.80;3.63;;;14.60;64.40;;;;;;4977386;28;20081;-81
2022/04/29 13:23:39;;;;;;;7.53;3.78;;;14.90;62.40;;;;;;4976466;28;20061;-82